Time,TemperatureF,DewpointF,PressureIn,WindDirection,WindDirectionDegrees,WindSpeedMPH,WindSpeedGustMPH,Humidity,HourlyPrecipIn,Conditions,Clouds,dailyrainin,SoftwareType,DateUTC
2013-02-06 00:02:00,26.2,15.1,30.38,SSE,153,2.0,2.0,62,0.00,,,0.00,meteohub,2013-02-06 08:02:00,
2013-02-06 00:07:00,26.1,14.9,30.38,SSE,158,0.0,2.0,62,0.00,,,0.00,meteohub,2013-02-06 08:07:00,
2013-02-06 00:12:00,25.9,14.7,30.38,SE,140,0.0,2.0,62,0.00,,,0.00,meteohub,2013-02-06 08:12:00,
2013-02-06 00:17:00,25.7,14.5,30.39,SSE,166,1.0,2.0,62,0.00,,,0.00,meteohub,2013-02-06 08:17:00,
2013-02-06 00:22:00,25.5,15.1,30.38,SSW,196,0.0,2.0,64,0.00,,,0.00,meteohub,2013-02-06 08:22:00,
2013-02-06 00:27:00,25.3,14.5,30.39,SSE,166,1.0,2.0,63,0.00,,,0.00,meteohub,2013-02-06 08:27:00,
2013-02-06 00:32:00,25.5,15.1,30.39,SSE,166,1.0,2.0,64,0.00,,,0.00,meteohub,2013-02-06 08:32:00,
2013-02-06 00:37:00,25.5,14.4,30.39,SSE,163,1.0,2.0,62,0.00,,,0.00,meteohub,2013-02-06 08:37:00,
2013-02-06 00:42:00,25.3,14.5,30.39,South,190,1.0,2.0,63,0.00,,,0.00,meteohub,2013-02-06 08:42:00,
2013-02-06 00:47:00,25.3,14.5,30.39,SSE,163,1.0,2.0,63,0.00,,,0.00,meteohub,2013-02-06 08:47:00,
2013-02-06 00:52:00,25.3,14.9,30.39,SW,214,0.0,2.0,64,0.00,,,0.00,meteohub,2013-02-06 08:52:00,
2013-02-06 00:57:00,25.5,15.1,30.39,South,171,2.0,2.0,64,0.00,,,0.00,meteohub,2013-02-06 08:57:00,
2013-02-06 01:02:00,25.3,14.2,30.40,SSE,161,1.0,2.0,62,0.00,,,0.00,meteohub,2013-02-06 09:02:00,
2013-02-06 01:07:00,25.2,14.4,30.40,SE,141,1.0,2.0,63,0.00,,,0.00,meteohub,2013-02-06 09:07:00,
2013-02-06 01:12:00,24.6,14.2,30.40,SSE,159,1.0,2.0,64,0.00,,,0.00,meteohub,2013-02-06 09:12:00,
2013-02-06 01:17:00,24.6,14.5,30.40,South,180,0.0,2.0,65,0.00,,,0.00,meteohub,2013-02-06 09:17:00,
2013-02-06 01:22:00,24.6,14.2,30.40,SSE,160,2.0,2.0,64,0.00,,,0.00,meteohub,2013-02-06 09:22:00,
2013-02-06 01:27:00,24.6,14.5,30.40,SSE,155,1.0,2.0,65,0.00,,,0.00,meteohub,2013-02-06 09:27:00,
2013-02-06 01:32:00,24.6,14.2,30.40,South,175,1.0,3.0,64,0.00,,,0.00,meteohub,2013-02-06 09:32:00,
2013-02-06 01:37:00,24.6,13.8,30.40,SSW,200,0.0,3.0,63,0.00,,,0.00,meteohub,2013-02-06 09:37:00,
2013-02-06 01:42:00,24.4,14.0,30.40,South,188,1.0,3.0,64,0.00,,,0.00,meteohub,2013-02-06 09:42:00,
2013-02-06 01:47:00,24.4,14.0,30.41,SSE,160,1.0,2.0,64,0.00,,,0.00,meteohub,2013-02-06 09:47:00,
2013-02-06 01:52:00,24.4,14.0,30.41,SSW,194,0.0,2.0,64,0.00,,,0.00,meteohub,2013-02-06 09:52:00,
2013-02-06 01:57:00,24.3,13.8,30.41,SSW,199,1.0,2.0,64,0.00,,,0.00,meteohub,2013-02-06 09:57:00,
2013-02-06 02:02:00,24.1,13.6,30.41,SSW,211,2.0,2.0,64,0.00,,,0.00,meteohub,2013-02-06 10:02:00,
2013-02-06 02:07:00,24.3,13.5,30.41,SSE,166,2.0,3.0,63,0.00,,,0.00,meteohub,2013-02-06 10:07:00,
2013-02-06 02:12:00,24.3,13.5,30.41,South,169,2.0,4.0,63,0.00,,,0.00,meteohub,2013-02-06 10:12:00,
2013-02-06 02:17:00,24.3,13.5,30.42,SSE,165,1.0,4.0,63,0.00,,,0.00,meteohub,2013-02-06 10:17:00,
2013-02-06 02:22:00,24.3,13.5,30.42,South,178,0.0,4.0,63,0.00,,,0.00,meteohub,2013-02-06 10:22:00,
2013-02-06 02:27:00,24.1,12.9,30.42,SSE,164,1.0,3.0,62,0.00,,,0.00,meteohub,2013-02-06 10:27:00,
2013-02-06 02:32:00,23.7,14.0,30.42,SSW,213,1.0,3.0,66,0.00,,,0.00,meteohub,2013-02-06 10:32:00,
2013-02-06 02:37:00,23.5,12.7,30.42,SSE,161,0.0,2.0,63,0.00,,,0.00,meteohub,2013-02-06 10:37:00,
2013-02-06 02:42:00,23.4,12.6,30.41,South,187,1.0,2.0,63,0.00,,,0.00,meteohub,2013-02-06 10:42:00,
2013-02-06 02:47:00,23.4,12.2,30.41,South,172,2.0,2.0,62,0.00,,,0.00,meteohub,2013-02-06 10:47:00,
2013-02-06 02:52:00,23.4,11.8,30.41,South,176,1.0,2.0,61,0.00,,,0.00,meteohub,2013-02-06 10:52:00,
2013-02-06 02:57:00,23.4,12.2,30.41,SSE,166,1.0,2.0,62,0.00,,,0.00,meteohub,2013-02-06 10:57:00,
2013-02-06 03:02:00,23.2,12.4,30.41,SSE,155,0.0,2.0,63,0.00,,,0.00,meteohub,2013-02-06 11:02:00,
2013-02-06 03:07:00,23.0,13.3,30.41,SE,146,0.0,2.0,66,0.00,,,0.00,meteohub,2013-02-06 11:07:00,
2013-02-06 03:12:00,22.6,14.4,30.42,SE,141,0.0,2.0,70,0.00,,,0.00,meteohub,2013-02-06 11:12:00,
2013-02-06 03:17:00,22.3,14.4,30.42,SSW,200,0.0,1.0,71,0.00,,,0.00,meteohub,2013-02-06 11:17:00,
2013-02-06 03:22:00,22.3,12.7,30.42,South,173,0.0,1.0,66,0.00,,,0.00,meteohub,2013-02-06 11:22:00,
2013-02-06 03:27:00,22.3,12.9,30.42,SSE,160,1.0,1.0,67,0.00,,,0.00,meteohub,2013-02-06 11:27:00,
2013-02-06 03:32:00,22.3,11.7,30.42,SSE,166,1.0,2.0,63,0.00,,,0.00,meteohub,2013-02-06 11:32:00,
2013-02-06 03:37:00,22.1,11.8,30.42,SSE,159,1.0,2.0,64,0.00,,,0.00,meteohub,2013-02-06 11:37:00,
2013-02-06 03:42:00,21.9,11.7,30.42,SSE,156,1.0,2.0,64,0.00,,,0.00,meteohub,2013-02-06 11:42:00,
2013-02-06 03:47:00,21.9,10.9,30.42,South,184,2.0,2.0,62,0.00,,,0.00,meteohub,2013-02-06 11:47:00,
2013-02-06 03:52:00,21.9,11.3,30.42,South,181,1.0,3.0,63,0.00,,,0.00,meteohub,2013-02-06 11:52:00,
2013-02-06 03:57:00,21.9,12.0,30.40,SSE,156,0.0,3.0,65,0.00,,,0.00,meteohub,2013-02-06 11:57:00,
2013-02-06 04:03:00,21.7,10.8,30.40,SSW,198,1.0,3.0,62,0.00,,,0.00,meteohub,2013-02-06 12:03:00,
2013-02-06 04:08:00,21.9,10.2,30.41,South,183,2.0,3.0,60,0.00,,,0.00,meteohub,2013-02-06 12:08:00,
2013-02-06 04:13:00,21.9,10.2,30.40,SSW,205,0.0,3.0,60,0.00,,,0.00,meteohub,2013-02-06 12:13:00,
2013-02-06 04:18:00,21.7,10.8,30.41,SSW,202,0.0,3.0,62,0.00,,,0.00,meteohub,2013-02-06 12:18:00,
2013-02-06 04:23:00,21.7,10.4,30.41,SE,131,1.0,3.0,61,0.00,,,0.00,meteohub,2013-02-06 12:23:00,
2013-02-06 04:28:00,21.6,10.9,30.42,SW,216,1.0,2.0,63,0.00,,,0.00,meteohub,2013-02-06 12:28:00,
2013-02-06 04:33:00,21.4,11.1,30.42,South,176,1.0,2.0,64,0.00,,,0.00,meteohub,2013-02-06 12:33:00,
2013-02-06 04:38:00,21.0,10.8,30.42,South,182,3.0,3.0,64,0.00,,,0.00,meteohub,2013-02-06 12:38:00,
2013-02-06 04:43:00,21.0,10.4,30.42,SSE,166,1.0,2.0,63,0.00,,,0.00,meteohub,2013-02-06 12:43:00,
2013-02-06 04:48:00,20.8,10.9,30.42,SSE,154,1.0,3.0,65,0.00,,,0.00,meteohub,2013-02-06 12:48:00,
2013-02-06 04:53:00,20.7,11.1,30.42,SSE,155,1.0,3.0,66,0.00,,,0.00,meteohub,2013-02-06 12:53:00,
2013-02-06 04:58:00,20.5,10.6,30.43,SSE,168,0.0,3.0,65,0.00,,,0.00,meteohub,2013-02-06 12:58:00,
2013-02-06 05:03:00,20.5,10.6,30.43,SSE,156,1.0,2.0,65,0.00,,,0.00,meteohub,2013-02-06 13:03:00,
2013-02-06 05:08:00,20.5,10.6,30.43,SSE,162,1.0,2.0,65,0.00,,,0.00,meteohub,2013-02-06 13:08:00,
2013-02-06 05:13:00,20.3,10.0,30.43,SE,138,0.0,3.0,64,0.00,,,0.00,meteohub,2013-02-06 13:13:00,
2013-02-06 05:18:00,20.1,10.6,30.43,South,169,1.0,3.0,66,0.00,,,0.00,meteohub,2013-02-06 13:18:00,
2013-02-06 05:24:00,19.9,10.8,30.43,SSE,156,1.0,3.0,67,0.00,,,0.00,meteohub,2013-02-06 13:24:00,
2013-02-06 05:29:00,19.8,10.9,30.44,South,171,0.0,2.0,68,0.00,,,0.00,meteohub,2013-02-06 13:29:00,
2013-02-06 05:34:00,19.6,10.4,30.44,South,171,1.0,2.0,67,0.00,,,0.00,meteohub,2013-02-06 13:34:00,
2013-02-06 05:39:00,19.6,9.7,30.44,SSE,159,1.0,2.0,65,0.00,,,0.00,meteohub,2013-02-06 13:39:00,
2013-02-06 05:44:00,19.2,9.0,30.44,SSE,160,0.0,2.0,64,0.00,,,0.00,meteohub,2013-02-06 13:44:00,
2013-02-06 05:49:00,19.0,9.1,30.45,SSE,166,1.0,2.0,65,0.00,,,0.00,meteohub,2013-02-06 13:49:00,
2013-02-06 05:54:00,19.0,9.9,30.45,SSW,194,2.0,2.0,67,0.00,,,0.00,meteohub,2013-02-06 13:54:00,
2013-02-06 05:59:00,19.0,9.5,30.45,South,180,3.0,3.0,66,0.00,,,0.00,meteohub,2013-02-06 13:59:00,
2013-02-06 06:04:00,19.0,9.0,30.45,SSE,156,2.0,3.0,64,0.00,,,0.00,meteohub,2013-02-06 14:04:00,
2013-02-06 06:09:00,19.0,9.1,30.44,South,169,3.0,3.0,65,0.00,,,0.00,meteohub,2013-02-06 14:09:00,
2013-02-06 06:14:00,19.0,9.1,30.44,South,170,3.0,4.0,65,0.00,,,0.00,meteohub,2013-02-06 14:14:00,
2013-02-06 06:19:00,19.0,9.1,30.44,SSE,152,3.0,4.0,65,0.00,,,0.00,meteohub,2013-02-06 14:19:00,
2013-02-06 06:24:00,19.0,9.1,30.45,South,171,2.0,4.0,65,0.00,,,0.00,meteohub,2013-02-06 14:24:00,
2013-02-06 06:29:00,19.0,9.1,30.45,South,175,3.0,4.0,65,0.00,,,0.00,meteohub,2013-02-06 14:29:00,
2013-02-06 06:34:00,18.9,8.8,30.45,South,171,3.0,4.0,64,0.00,,,0.00,meteohub,2013-02-06 14:34:00,
2013-02-06 06:39:00,18.7,9.0,30.45,South,180,3.0,3.0,65,0.00,,,0.00,meteohub,2013-02-06 14:39:00,
2013-02-06 06:44:00,18.5,9.0,30.45,SSE,167,3.0,3.0,66,0.00,,,0.00,meteohub,2013-02-06 14:44:00,
2013-02-06 06:49:00,18.3,9.0,30.45,SSE,167,2.0,3.0,66,0.00,,,0.00,meteohub,2013-02-06 14:49:00,
2013-02-06 06:54:00,18.3,9.1,30.45,SSE,159,2.0,4.0,67,0.00,,,0.00,meteohub,2013-02-06 14:54:00,
2013-02-06 06:59:00,18.1,8.4,30.45,SSE,155,2.0,4.0,65,0.00,,,0.00,meteohub,2013-02-06 14:59:00,
2013-02-06 07:05:00,18.1,8.8,30.46,South,171,2.0,4.0,66,0.00,,,0.00,meteohub,2013-02-06 15:05:00,
2013-02-06 07:10:00,18.1,9.0,30.46,South,173,3.0,3.0,67,0.00,,,0.00,meteohub,2013-02-06 15:10:00,
2013-02-06 07:15:00,18.3,8.6,30.46,South,171,3.0,3.0,65,0.00,,,0.00,meteohub,2013-02-06 15:15:00,
2013-02-06 07:20:00,18.3,8.6,30.47,SSE,156,0.0,3.0,65,0.00,,,0.00,meteohub,2013-02-06 15:20:00,
2013-02-06 07:25:00,18.3,8.6,30.47,South,187,0.0,4.0,65,0.00,,,0.00,meteohub,2013-02-06 15:25:00,
2013-02-06 07:30:00,18.3,8.6,30.48,South,178,0.0,3.0,65,0.00,,,0.00,meteohub,2013-02-06 15:30:00,
2013-02-06 07:35:00,18.1,9.0,30.48,South,170,1.0,2.0,67,0.00,,,0.00,meteohub,2013-02-06 15:35:00,
2013-02-06 07:40:00,18.1,9.3,30.48,South,174,1.0,2.0,68,0.00,,,0.00,meteohub,2013-02-06 15:40:00,
2013-02-06 07:45:00,18.3,10.2,30.48,SSW,192,2.0,2.0,70,0.00,,,0.00,meteohub,2013-02-06 15:45:00,
2013-02-06 07:50:00,18.3,9.9,30.49,SSE,165,3.0,3.0,69,0.00,,,0.00,meteohub,2013-02-06 15:50:00,
2013-02-06 07:55:00,18.3,9.5,30.49,SSW,192,1.0,3.0,68,0.00,,,0.00,meteohub,2013-02-06 15:55:00,
2013-02-06 08:00:00,18.3,9.0,30.49,SSE,166,2.0,3.0,66,0.00,,,0.00,meteohub,2013-02-06 16:00:00,
2013-02-06 08:05:00,18.3,9.0,30.49,South,182,2.0,3.0,66,0.00,,,0.00,meteohub,2013-02-06 16:05:00,
2013-02-06 08:10:00,18.9,8.4,30.49,South,173,2.0,3.0,63,0.00,,,0.00,meteohub,2013-02-06 16:10:00,
2013-02-06 08:15:00,19.4,8.1,30.49,South,181,3.0,3.0,61,0.00,,,0.00,meteohub,2013-02-06 16:15:00,
2013-02-06 08:21:00,20.1,8.4,30.49,SSE,161,2.0,3.0,60,0.00,,,0.00,meteohub,2013-02-06 16:21:00,
2013-02-06 08:26:00,20.8,8.4,30.50,SSE,161,2.0,3.0,58,0.00,,,0.00,meteohub,2013-02-06 16:26:00,
2013-02-06 08:31:00,21.6,7.9,30.50,South,169,1.0,3.0,55,0.00,,,0.00,meteohub,2013-02-06 16:31:00,
2013-02-06 08:36:00,22.3,8.2,30.50,SSE,168,1.0,3.0,54,0.00,,,0.00,meteohub,2013-02-06 16:36:00,
2013-02-06 08:41:00,22.8,8.2,30.51,SSE,161,1.0,3.0,53,0.00,,,0.00,meteohub,2013-02-06 16:41:00,
2013-02-06 08:46:00,23.4,8.4,30.51,SSE,151,0.0,2.0,52,0.00,,,0.00,meteohub,2013-02-06 16:46:00,
2013-02-06 08:51:00,23.9,8.8,30.51,SE,145,0.0,2.0,52,0.00,,,0.00,meteohub,2013-02-06 16:51:00,
2013-02-06 08:56:00,24.3,9.1,30.51,SSE,151,0.0,1.0,52,0.00,,,0.00,meteohub,2013-02-06 16:56:00,
2013-02-06 09:01:00,25.0,9.0,30.51,South,171,0.0,1.0,50,0.00,,,0.00,meteohub,2013-02-06 17:01:00,
2013-02-06 09:06:00,26.1,8.1,30.51,SSE,167,0.0,1.0,46,0.00,,,0.00,meteohub,2013-02-06 17:06:00,
2013-02-06 09:11:00,27.0,7.9,30.51,SSE,161,0.0,1.0,44,0.00,,,0.00,meteohub,2013-02-06 17:11:00,
2013-02-06 09:16:00,27.7,7.5,30.51,SSE,161,0.0,1.0,42,0.00,,,0.00,meteohub,2013-02-06 17:16:00,
2013-02-06 09:21:00,28.0,9.9,30.51,SSE,162,0.0,1.0,46,0.00,,,0.00,meteohub,2013-02-06 17:21:00,
2013-02-06 09:26:00,28.2,7.5,30.51,SSE,162,0.0,0.0,41,0.00,,,0.00,meteohub,2013-02-06 17:26:00,
2013-02-06 09:31:00,28.6,11.8,30.51,SSE,161,0.0,0.0,49,0.00,,,0.00,meteohub,2013-02-06 17:31:00,
2013-02-06 09:36:00,28.9,10.8,30.51,SSE,161,0.0,0.0,46,0.00,,,0.00,meteohub,2013-02-06 17:36:00,
2013-02-06 09:41:00,29.5,10.8,30.51,SSE,161,0.0,0.0,45,0.00,,,0.00,meteohub,2013-02-06 17:41:00,
2013-02-06 09:46:00,30.0,13.6,30.51,SSE,161,0.0,1.0,50,0.00,,,0.00,meteohub,2013-02-06 17:46:00,
2013-02-06 09:52:00,30.2,10.4,30.51,NW,317,1.0,2.0,43,0.00,,,0.00,meteohub,2013-02-06 17:52:00,
2013-02-06 09:57:00,30.6,10.2,30.51,NW,317,1.0,2.0,42,0.00,,,0.00,meteohub,2013-02-06 17:57:00,
2013-02-06 10:02:00,30.9,10.0,30.51,NW,323,1.0,2.0,41,0.00,,,0.00,meteohub,2013-02-06 18:02:00,
2013-02-06 10:07:00,31.3,9.7,30.52,NNW,342,1.0,2.0,40,0.00,,,0.00,meteohub,2013-02-06 18:07:00,
2013-02-06 10:12:00,31.6,11.1,30.52,NNW,333,1.0,2.0,42,0.00,,,0.00,meteohub,2013-02-06 18:12:00,
2013-02-06 10:17:00,31.8,10.2,30.52,NNW,333,1.0,2.0,40,0.00,,,0.00,meteohub,2013-02-06 18:17:00,
2013-02-06 10:22:00,32.4,10.2,30.52,NNW,341,2.0,2.0,39,0.00,,,0.00,meteohub,2013-02-06 18:22:00,
2013-02-06 10:27:00,32.5,10.9,30.52,NNW,335,2.0,3.0,40,0.00,,,0.00,meteohub,2013-02-06 18:27:00,
2013-02-06 10:32:00,32.9,10.6,30.52,NNE,12,2.0,3.0,39,0.00,,,0.00,meteohub,2013-02-06 18:32:00,
2013-02-06 10:37:00,33.1,11.3,30.52,NNE,23,3.0,4.0,40,0.00,,,0.00,meteohub,2013-02-06 18:37:00,
2013-02-06 10:42:00,33.3,13.1,30.52,NNE,13,2.0,4.0,43,0.00,,,0.00,meteohub,2013-02-06 18:42:00,
2013-02-06 10:47:00,33.4,10.6,30.52,NNE,23,3.0,4.0,38,0.00,,,0.00,meteohub,2013-02-06 18:47:00,
2013-02-06 10:52:00,33.6,13.5,30.52,NNW,333,4.0,4.0,43,0.00,,,0.00,meteohub,2013-02-06 18:52:00,
2013-02-06 10:57:00,34.0,13.8,30.52,NNW,330,4.0,4.0,43,0.00,,,0.00,meteohub,2013-02-06 18:57:00,
2013-02-06 11:02:00,34.2,11.8,30.52,NNW,333,4.0,5.0,39,0.00,,,0.00,meteohub,2013-02-06 19:02:00,
2013-02-06 11:07:00,34.3,13.6,30.52,NNE,24,4.0,5.0,42,0.00,,,0.00,meteohub,2013-02-06 19:07:00,
2013-02-06 11:12:00,34.5,11.5,30.52,NNW,329,3.0,5.0,38,0.00,,,0.00,meteohub,2013-02-06 19:12:00,
2013-02-06 11:17:00,34.7,12.2,30.52,NNW,334,2.0,5.0,39,0.00,,,0.00,meteohub,2013-02-06 19:17:00,
2013-02-06 11:22:00,35.1,13.1,30.52,NNW,337,3.0,5.0,40,0.00,,,0.00,meteohub,2013-02-06 19:22:00,
2013-02-06 11:27:00,35.1,13.6,30.52,North,350,3.0,5.0,41,0.00,,,0.00,meteohub,2013-02-06 19:27:00,
2013-02-06 11:32:00,35.2,15.4,30.52,NNW,330,4.0,5.0,44,0.00,,,0.00,meteohub,2013-02-06 19:32:00,
2013-02-06 11:38:00,35.2,17.6,30.52,NW,325,4.0,5.0,48,0.00,,,0.00,meteohub,2013-02-06 19:38:00,
2013-02-06 11:43:00,35.2,17.1,30.52,NNW,348,4.0,5.0,47,0.00,,,0.00,meteohub,2013-02-06 19:43:00,
2013-02-06 11:48:00,35.2,16.0,30.51,NNW,330,2.0,5.0,45,0.00,,,0.00,meteohub,2013-02-06 19:48:00,
2013-02-06 11:53:00,35.2,17.6,30.51,NW,323,3.0,5.0,48,0.00,,,0.00,meteohub,2013-02-06 19:53:00,
2013-02-06 11:58:00,35.2,18.0,30.51,NW,325,3.0,5.0,49,0.00,,,0.00,meteohub,2013-02-06 19:58:00,
2013-02-06 12:03:00,35.2,16.5,30.51,NNW,327,3.0,4.0,46,0.00,,,0.00,meteohub,2013-02-06 20:03:00,
2013-02-06 12:08:00,35.4,18.7,30.51,NW,324,3.0,4.0,50,0.00,,,0.00,meteohub,2013-02-06 20:08:00,
2013-02-06 12:13:00,35.4,17.6,30.51,NNW,330,3.0,5.0,48,0.00,,,0.00,meteohub,2013-02-06 20:13:00,
2013-02-06 12:18:00,35.8,18.0,30.51,NW,315,2.0,5.0,48,0.00,,,0.00,meteohub,2013-02-06 20:18:00,
2013-02-06 12:23:00,35.8,17.6,30.51,NNW,333,2.0,5.0,47,0.00,,,0.00,meteohub,2013-02-06 20:23:00,
2013-02-06 12:28:00,36.0,18.7,30.51,NNW,327,3.0,4.0,49,0.00,,,0.00,meteohub,2013-02-06 20:28:00,
2013-02-06 12:33:00,36.0,18.7,30.50,NW,321,2.0,3.0,49,0.00,,,0.00,meteohub,2013-02-06 20:33:00,
2013-02-06 12:38:00,36.1,17.8,30.51,NW,322,3.0,4.0,47,0.00,,,0.00,meteohub,2013-02-06 20:38:00,
2013-02-06 12:44:00,36.5,20.1,30.51,WNW,288,0.0,4.0,51,0.00,,,0.00,meteohub,2013-02-06 20:44:00,
2013-02-06 12:49:00,36.9,19.9,30.51,NW,322,0.0,4.0,50,0.00,,,0.00,meteohub,2013-02-06 20:49:00,
2013-02-06 12:54:00,37.6,20.7,30.51,North,350,0.0,4.0,50,0.00,,,0.00,meteohub,2013-02-06 20:54:00,
2013-02-06 12:59:00,37.4,20.8,30.51,NW,322,0.0,4.0,51,0.00,,,0.00,meteohub,2013-02-06 20:59:00,
2013-02-06 13:04:00,37.8,19.8,30.51,NNW,327,0.0,4.0,48,0.00,,,0.00,meteohub,2013-02-06 21:04:00,
2013-02-06 13:09:00,37.6,20.7,30.50,NW,319,1.0,4.0,50,0.00,,,0.00,meteohub,2013-02-06 21:09:00,
2013-02-06 13:14:00,37.2,20.3,30.50,NW,319,0.0,4.0,50,0.00,,,0.00,meteohub,2013-02-06 21:14:00,
2013-02-06 13:19:00,37.2,21.7,30.49,NNW,346,0.0,3.0,53,0.00,,,0.00,meteohub,2013-02-06 21:19:00,
2013-02-06 13:24:00,38.1,22.5,30.49,NNW,346,0.0,3.0,53,0.00,,,0.00,meteohub,2013-02-06 21:24:00,
2013-02-06 13:29:00,38.7,23.4,30.49,NW,318,1.0,2.0,54,0.00,,,0.00,meteohub,2013-02-06 21:29:00,
2013-02-06 13:34:00,37.9,23.2,30.48,NW,319,0.0,1.0,55,0.00,,,0.00,meteohub,2013-02-06 21:34:00,
2013-02-06 13:39:00,37.6,24.6,30.48,NW,320,0.0,5.0,59,0.00,,,0.00,meteohub,2013-02-06 21:39:00,
2013-02-06 13:44:00,37.6,23.7,30.48,NW,323,1.0,5.0,57,0.00,,,0.00,meteohub,2013-02-06 21:44:00,
2013-02-06 13:49:00,37.2,22.1,30.48,NW,323,3.0,5.0,54,0.00,,,0.00,meteohub,2013-02-06 21:49:00,
2013-02-06 13:54:00,37.0,23.2,30.48,NW,319,3.0,4.0,57,0.00,,,0.00,meteohub,2013-02-06 21:54:00,
2013-02-06 13:59:00,37.0,22.5,30.48,NW,311,2.0,4.0,55,0.00,,,0.00,meteohub,2013-02-06 21:59:00,
2013-02-06 14:05:00,36.9,22.6,30.48,NW,322,3.0,4.0,56,0.00,,,0.00,meteohub,2013-02-06 22:05:00,
2013-02-06 14:10:00,36.9,22.6,30.48,NNW,329,3.0,3.0,56,0.00,,,0.00,meteohub,2013-02-06 22:10:00,
2013-02-06 14:15:00,36.9,23.9,30.48,NNW,333,3.0,3.0,59,0.00,,,0.00,meteohub,2013-02-06 22:15:00,
2013-02-06 14:20:00,36.7,23.4,30.48,NW,320,2.0,4.0,58,0.00,,,0.00,meteohub,2013-02-06 22:20:00,
2013-02-06 14:25:00,36.7,22.5,30.48,NW,319,2.0,4.0,56,0.00,,,0.00,meteohub,2013-02-06 22:25:00,
2013-02-06 14:30:00,36.7,23.7,30.48,NW,323,2.0,4.0,59,0.00,,,0.00,meteohub,2013-02-06 22:30:00,
2013-02-06 14:35:00,36.7,25.0,30.48,NW,323,1.0,4.0,62,0.00,,,0.00,meteohub,2013-02-06 22:35:00,
2013-02-06 14:40:00,36.7,24.1,30.48,NW,321,2.0,4.0,60,0.00,,,0.00,meteohub,2013-02-06 22:40:00,
2013-02-06 14:45:00,36.7,24.4,30.48,NNW,347,1.0,3.0,61,0.00,,,0.00,meteohub,2013-02-06 22:45:00,
2013-02-06 14:50:00,36.7,23.7,30.48,NNW,336,1.0,3.0,59,0.00,,,0.00,meteohub,2013-02-06 22:50:00,
2013-02-06 14:55:00,36.7,24.4,30.48,NNW,329,1.0,3.0,61,0.00,,,0.00,meteohub,2013-02-06 22:55:00,
2013-02-06 15:00:00,36.7,24.1,30.48,NNW,327,0.0,2.0,60,0.00,,,0.00,meteohub,2013-02-06 23:00:00,
2013-02-06 15:05:00,36.7,23.4,30.48,NNW,327,1.0,2.0,58,0.00,,,0.00,meteohub,2013-02-06 23:05:00,
2013-02-06 15:10:00,36.7,24.1,30.48,NNW,327,0.0,2.0,60,0.00,,,0.00,meteohub,2013-02-06 23:10:00,
2013-02-06 15:15:00,36.7,24.1,30.48,NNW,333,1.0,2.0,60,0.00,,,0.00,meteohub,2013-02-06 23:15:00,
2013-02-06 15:20:00,36.7,24.1,30.48,NNW,346,1.0,2.0,60,0.00,,,0.00,meteohub,2013-02-06 23:20:00,
2013-02-06 15:26:00,36.9,23.9,30.48,NNE,30,0.0,2.0,59,0.00,,,0.00,meteohub,2013-02-06 23:26:00,
2013-02-06 15:31:00,36.9,24.6,30.48,NNE,27,1.0,2.0,61,0.00,,,0.00,meteohub,2013-02-06 23:31:00,
2013-02-06 15:36:00,37.0,23.2,30.48,NNW,344,1.0,2.0,57,0.00,,,0.00,meteohub,2013-02-06 23:36:00,
2013-02-06 15:41:00,37.0,21.9,30.48,NNW,342,1.0,2.0,54,0.00,,,0.00,meteohub,2013-02-06 23:41:00,
2013-02-06 15:46:00,37.0,24.1,30.48,NNW,342,0.0,2.0,59,0.00,,,0.00,meteohub,2013-02-06 23:46:00,
2013-02-06 15:51:00,37.2,23.7,30.48,NNW,327,0.0,1.0,58,0.00,,,0.00,meteohub,2013-02-06 23:51:00,
2013-02-06 15:56:00,37.0,21.9,30.48,NNW,327,0.0,2.0,54,0.00,,,0.00,meteohub,2013-02-06 23:56:00,
2013-02-06 16:01:00,37.0,20.7,30.48,NNW,327,0.0,2.0,51,0.00,,,0.00,meteohub,2013-02-07 00:01:00,
2013-02-06 16:06:00,37.0,23.2,30.48,NNW,327,0.0,1.0,57,0.00,,,0.00,meteohub,2013-02-07 00:06:00,
2013-02-06 16:11:00,37.0,23.7,30.48,NNW,327,0.0,1.0,58,0.00,,,0.00,meteohub,2013-02-07 00:11:00,
2013-02-06 16:16:00,36.9,22.6,30.48,NNW,327,0.0,1.0,56,0.00,,,0.00,meteohub,2013-02-07 00:16:00,
2013-02-06 16:21:00,36.7,22.5,30.48,NNW,327,0.0,0.0,56,0.00,,,0.00,meteohub,2013-02-07 00:21:00,
2013-02-06 16:26:00,36.1,21.6,30.48,NNW,327,0.0,0.0,55,0.00,,,0.00,meteohub,2013-02-07 00:26:00,
2013-02-06 16:31:00,36.1,22.5,30.48,NNW,327,0.0,0.0,57,0.00,,,0.00,meteohub,2013-02-07 00:31:00,
2013-02-06 16:37:00,36.1,24.1,30.48,NNW,327,0.0,0.0,61,0.00,,,0.00,meteohub,2013-02-07 00:37:00,
2013-02-06 16:42:00,35.8,24.4,30.48,NNW,327,0.0,0.0,63,0.00,,,0.00,meteohub,2013-02-07 00:42:00,
2013-02-06 16:47:00,35.2,23.9,30.48,NNW,327,0.0,0.0,63,0.00,,,0.00,meteohub,2013-02-07 00:47:00,
2013-02-06 16:52:00,35.1,23.7,30.48,NNW,327,0.0,0.0,63,0.00,,,0.00,meteohub,2013-02-07 00:52:00,
2013-02-06 16:57:00,35.2,23.9,30.48,NNW,327,0.0,0.0,63,0.00,,,0.00,meteohub,2013-02-07 00:57:00,
2013-02-06 17:02:00,35.2,23.9,30.48,NW,323,0.0,0.0,63,0.00,,,0.00,meteohub,2013-02-07 01:02:00,
2013-02-06 17:07:00,35.1,23.0,30.48,SW,221,0.0,0.0,61,0.00,,,0.00,meteohub,2013-02-07 01:07:00,
2013-02-06 17:12:00,34.7,23.0,30.48,SW,221,0.0,1.0,62,0.00,,,0.00,meteohub,2013-02-07 01:12:00,
2013-02-06 17:17:00,34.3,21.6,30.48,SW,221,0.0,1.0,59,0.00,,,0.00,meteohub,2013-02-07 01:17:00,
2013-02-06 17:22:00,34.3,22.3,30.49,SSW,198,0.0,1.0,61,0.00,,,0.00,meteohub,2013-02-07 01:22:00,
2013-02-06 17:27:00,34.2,22.1,30.49,SSE,160,0.0,0.0,61,0.00,,,0.00,meteohub,2013-02-07 01:27:00,
2013-02-06 17:32:00,34.0,21.9,30.49,South,183,1.0,1.0,61,0.00,,,0.00,meteohub,2013-02-07 01:32:00,
2013-02-06 17:37:00,33.6,20.8,30.49,SSE,157,2.0,2.0,59,0.00,,,0.00,meteohub,2013-02-07 01:37:00,
2013-02-06 17:42:00,33.4,21.0,30.49,SSE,163,0.0,2.0,60,0.00,,,0.00,meteohub,2013-02-07 01:42:00,
2013-02-06 17:47:00,33.3,20.8,30.49,SSE,163,1.0,2.0,60,0.00,,,0.00,meteohub,2013-02-07 01:47:00,
2013-02-06 17:52:00,33.3,21.2,30.49,SE,144,1.0,2.0,61,0.00,,,0.00,meteohub,2013-02-07 01:52:00,
2013-02-06 17:57:00,33.1,21.0,30.49,South,171,1.0,2.0,61,0.00,,,0.00,meteohub,2013-02-07 01:57:00,
2013-02-06 18:02:00,32.9,20.8,30.49,SSE,157,2.0,2.0,61,0.00,,,0.00,meteohub,2013-02-07 02:02:00,
2013-02-06 18:07:00,32.7,20.3,30.49,SSE,161,1.0,2.0,60,0.00,,,0.00,meteohub,2013-02-07 02:07:00,
2013-02-06 18:12:00,32.7,22.3,30.50,SSE,155,0.0,2.0,65,0.00,,,0.00,meteohub,2013-02-07 02:12:00,
2013-02-06 18:17:00,32.7,20.8,30.50,SSE,161,0.0,2.0,61,0.00,,,0.00,meteohub,2013-02-07 02:17:00,
2013-02-06 18:22:00,32.5,22.1,30.50,SE,141,0.0,3.0,65,0.00,,,0.00,meteohub,2013-02-07 02:22:00,
2013-02-06 18:27:00,32.5,22.5,30.50,South,190,0.0,3.0,66,0.00,,,0.00,meteohub,2013-02-07 02:27:00,
2013-02-06 18:32:00,32.2,22.1,30.50,SSE,160,0.0,3.0,66,0.00,,,0.00,meteohub,2013-02-07 02:32:00,
2013-02-06 18:37:00,31.6,22.3,30.50,SSE,168,0.0,3.0,68,0.00,,,0.00,meteohub,2013-02-07 02:37:00,
2013-02-06 18:42:00,31.3,22.3,30.50,South,174,1.0,2.0,69,0.00,,,0.00,meteohub,2013-02-07 02:42:00,
2013-02-06 18:47:00,31.1,22.5,30.51,SSE,157,0.0,2.0,70,0.00,,,0.00,meteohub,2013-02-07 02:47:00,
2013-02-06 18:52:00,31.3,22.3,30.51,SSE,162,1.0,2.0,69,0.00,,,0.00,meteohub,2013-02-07 02:52:00,
2013-02-06 18:57:00,31.3,22.6,30.51,South,172,0.0,2.0,70,0.00,,,0.00,meteohub,2013-02-07 02:57:00,
2013-02-06 19:02:00,31.3,22.6,30.51,South,172,0.0,2.0,70,0.00,,,0.00,meteohub,2013-02-07 03:02:00,
2013-02-06 19:07:00,31.5,22.8,30.51,SSE,157,1.0,2.0,70,0.00,,,0.00,meteohub,2013-02-07 03:07:00,
2013-02-06 19:12:00,31.6,23.0,30.51,SSE,159,1.0,2.0,70,0.00,,,0.00,meteohub,2013-02-07 03:12:00,
2013-02-06 19:17:00,32.2,23.5,30.51,SSE,157,0.0,2.0,70,0.00,,,0.00,meteohub,2013-02-07 03:17:00,
2013-02-06 19:22:00,32.2,23.9,30.51,SSE,156,0.0,2.0,71,0.00,,,0.00,meteohub,2013-02-07 03:22:00,
2013-02-06 19:27:00,32.2,23.5,30.51,SE,142,0.0,1.0,70,0.00,,,0.00,meteohub,2013-02-07 03:27:00,
2013-02-06 19:32:00,32.7,23.7,30.50,ESE,115,0.0,1.0,69,0.00,,,0.00,meteohub,2013-02-07 03:32:00,
2013-02-06 19:37:00,32.9,23.5,30.51,ESE,115,0.0,1.0,68,0.00,,,0.00,meteohub,2013-02-07 03:37:00,
2013-02-06 19:42:00,32.9,23.2,30.51,ESE,115,0.0,1.0,67,0.00,,,0.00,meteohub,2013-02-07 03:42:00,
2013-02-06 19:47:00,33.1,23.4,30.51,SW,217,0.0,1.0,67,0.00,,,0.00,meteohub,2013-02-07 03:47:00,
2013-02-06 19:52:00,33.1,23.4,30.51,SW,217,0.0,2.0,67,0.00,,,0.00,meteohub,2013-02-07 03:52:00,
2013-02-06 19:57:00,32.7,23.7,30.50,SSW,200,0.0,2.0,69,0.00,,,0.00,meteohub,2013-02-07 03:57:00,
2013-02-06 20:02:00,32.5,23.2,30.50,SE,132,0.0,1.0,68,0.00,,,0.00,meteohub,2013-02-07 04:02:00,
2013-02-06 20:07:00,32.4,22.6,30.50,SSE,156,0.0,2.0,67,0.00,,,0.00,meteohub,2013-02-07 04:07:00,
2013-02-06 20:12:00,32.4,23.0,30.50,SSW,194,0.0,2.0,68,0.00,,,0.00,meteohub,2013-02-07 04:12:00,
2013-02-06 20:17:00,32.2,23.2,30.51,SSW,194,0.0,2.0,69,0.00,,,0.00,meteohub,2013-02-07 04:17:00,
2013-02-06 20:22:00,31.8,22.5,30.51,SSW,194,0.0,1.0,68,0.00,,,0.00,meteohub,2013-02-07 04:22:00,
2013-02-06 20:27:00,31.5,22.5,30.50,SSW,194,0.0,0.0,69,0.00,,,0.00,meteohub,2013-02-07 04:27:00,
2013-02-06 20:32:00,31.3,21.9,30.50,SSW,194,0.0,0.0,68,0.00,,,0.00,meteohub,2013-02-07 04:32:00,
2013-02-06 20:37:00,31.1,21.7,30.50,SSW,194,0.0,0.0,68,0.00,,,0.00,meteohub,2013-02-07 04:37:00,
2013-02-06 20:42:00,30.9,20.8,30.50,SSW,194,0.0,0.0,66,0.00,,,0.00,meteohub,2013-02-07 04:42:00,
2013-02-06 20:47:00,30.7,21.0,30.50,SSW,194,0.0,0.0,67,0.00,,,0.00,meteohub,2013-02-07 04:47:00,
2013-02-06 20:52:00,30.6,21.2,30.51,SSW,194,0.0,0.0,68,0.00,,,0.00,meteohub,2013-02-07 04:52:00,
2013-02-06 20:57:00,30.0,21.4,30.51,SSW,194,0.0,0.0,70,0.00,,,0.00,meteohub,2013-02-07 04:57:00,
2013-02-06 21:00:00,29.8,21.6,30.51,SSW,194,0.0,1.0,71,0.00,,,0.00,meteohub,2013-02-07 05:00:00,
2013-02-06 21:01:00,29.8,21.6,30.51,SSW,194,1.0,1.0,71,0.00,,,0.00,meteohub,2013-02-07 05:01:00,
2013-02-06 21:06:00,29.7,21.7,30.50,SSW,200,0.0,1.0,72,0.00,,,0.00,meteohub,2013-02-07 05:06:00,
2013-02-06 21:11:00,29.5,21.6,30.51,SSW,200,0.0,1.0,72,0.00,,,0.00,meteohub,2013-02-07 05:11:00,
2013-02-06 21:16:00,29.3,21.4,30.51,SSE,167,0.0,1.0,72,0.00,,,0.00,meteohub,2013-02-07 05:16:00,
2013-02-06 21:21:00,29.1,20.8,30.51,SSE,163,0.0,1.0,71,0.00,,,0.00,meteohub,2013-02-07 05:21:00,
2013-02-06 21:27:00,28.9,20.5,30.50,SSE,160,1.0,1.0,70,0.00,,,0.00,meteohub,2013-02-07 05:27:00,
2013-02-06 21:32:00,28.8,20.3,30.50,SSW,210,0.0,2.0,70,0.00,,,0.00,meteohub,2013-02-07 05:32:00,
2013-02-06 21:37:00,28.6,19.8,30.50,South,169,0.0,2.0,69,0.00,,,0.00,meteohub,2013-02-07 05:37:00,
2013-02-06 21:42:00,28.6,19.0,30.50,SSW,192,1.0,2.0,67,0.00,,,0.00,meteohub,2013-02-07 05:42:00,
2013-02-06 21:47:00,28.8,18.9,30.50,SSE,166,0.0,2.0,66,0.00,,,0.00,meteohub,2013-02-07 05:47:00,
2013-02-06 21:52:00,28.8,18.5,30.50,SSE,154,0.0,2.0,65,0.00,,,0.00,meteohub,2013-02-07 05:52:00,
2013-02-06 21:57:00,28.8,18.5,30.50,SSW,210,0.0,2.0,65,0.00,,,0.00,meteohub,2013-02-07 05:57:00,
2013-02-06 22:02:00,28.6,18.7,30.50,SSW,194,0.0,1.0,66,0.00,,,0.00,meteohub,2013-02-07 06:02:00,
2013-02-06 22:07:00,28.6,18.0,30.50,SSW,194,0.0,1.0,64,0.00,,,0.00,meteohub,2013-02-07 06:07:00,
2013-02-06 22:12:00,28.8,18.1,30.50,South,171,0.0,1.0,64,0.00,,,0.00,meteohub,2013-02-07 06:12:00,
2013-02-06 22:17:00,28.8,17.8,30.50,SSW,200,0.0,1.0,63,0.00,,,0.00,meteohub,2013-02-07 06:17:00,
2013-02-06 22:22:00,28.8,18.5,30.50,SSW,195,0.0,1.0,65,0.00,,,0.00,meteohub,2013-02-07 06:22:00,
2013-02-06 22:27:00,28.6,18.0,30.50,SSE,167,0.0,1.0,64,0.00,,,0.00,meteohub,2013-02-07 06:27:00,
2013-02-06 22:32:00,28.6,16.2,30.49,SSE,167,0.0,2.0,59,0.00,,,0.00,meteohub,2013-02-07 06:32:00,
2013-02-06 22:37:00,28.8,17.4,30.50,SSE,167,0.0,2.0,62,0.00,,,0.00,meteohub,2013-02-07 06:37:00,
2013-02-06 22:42:00,28.8,18.5,30.49,SSE,167,1.0,0.0,65,0.00,,,0.00,meteohub,2013-02-07 06:42:00,
2013-02-06 22:47:00,28.2,16.9,30.49,SSE,148,1.0,1.0,62,0.00,,,0.00,meteohub,2013-02-07 06:47:00,
2013-02-06 22:53:00,28.0,17.4,30.49,SSW,194,0.0,2.0,64,0.00,,,0.00,meteohub,2013-02-07 06:53:00,
2013-02-06 22:58:00,28.4,15.1,30.49,SSW,194,0.0,2.0,57,0.00,,,0.00,meteohub,2013-02-07 06:58:00,
2013-02-06 23:03:00,28.8,15.8,30.49,SSW,205,0.0,2.0,58,0.00,,,0.00,meteohub,2013-02-07 07:03:00,
2013-02-06 23:08:00,28.9,15.3,30.49,South,173,0.0,1.0,56,0.00,,,0.00,meteohub,2013-02-07 07:08:00,
2013-02-06 23:13:00,28.9,15.3,30.49,SSW,210,0.0,1.0,56,0.00,,,0.00,meteohub,2013-02-07 07:13:00,
2013-02-06 23:18:00,29.3,15.6,30.49,SSW,213,0.0,1.0,56,0.00,,,0.00,meteohub,2013-02-07 07:18:00,
2013-02-06 23:23:00,29.7,12.9,30.49,SSW,210,0.0,1.0,49,0.00,,,0.00,meteohub,2013-02-07 07:23:00,
2013-02-06 23:28:00,30.9,10.6,30.49,SE,134,5.0,5.0,42,0.00,,,0.00,meteohub,2013-02-07 07:28:00,
2013-02-06 23:33:00,32.2,11.1,30.49,SW,230,0.0,8.0,41,0.00,,,0.00,meteohub,2013-02-07 07:33:00,
2013-02-06 23:38:00,32.2,11.1,30.49,South,175,1.0,8.0,41,0.00,,,0.00,meteohub,2013-02-07 07:38:00,
2013-02-06 23:43:00,32.4,11.3,30.49,South,176,1.0,8.0,41,0.00,,,0.00,meteohub,2013-02-07 07:43:00,
2013-02-06 23:48:00,32.4,11.3,30.49,SE,144,1.0,6.0,41,0.00,,,0.00,meteohub,2013-02-07 07:48:00,
2013-02-06 23:53:00,32.4,12.4,30.48,South,180,1.0,5.0,43,0.00,,,0.00,meteohub,2013-02-07 07:53:00,
2013-02-06 23:59:00,32.2,11.7,30.48,ESE,113,0.0,5.0,42,0.00,,,0.00,meteohub,2013-02-07 07:59:00,